createdAt,value
2019-01-06T00:00:06.923Z,79.59
2019-01-06T00:02:33.202Z,80.10
2019-01-06T00:04:59.488Z,80.39
2019-01-06T00:07:25.768Z,80.20
2019-01-06T00:09:52.077Z,80.30
2019-01-06T00:12:18.348Z,80.56
2019-01-06T00:14:44.654Z,80.89
2019-01-06T00:17:10.933Z,80.71
2019-01-06T00:19:37.228Z,80.67
2019-01-06T00:22:03.531Z,80.89
2019-01-06T00:24:29.826Z,81.00
2019-01-06T00:26:56.143Z,80.85
2019-01-06T00:29:22.436Z,81.19
2019-01-06T00:31:48.723Z,81.31
2019-01-06T00:34:15.043Z,80.86
2019-01-06T00:36:41.304Z,80.93
2019-01-06T00:39:07.581Z,81.18
2019-01-06T00:41:33.866Z,81.27
2019-01-06T00:44:00.128Z,81.04
2019-01-06T00:46:26.426Z,80.82
2019-01-06T00:48:52.712Z,80.26
2019-01-06T00:51:19.008Z,79.88
2019-01-06T00:53:45.331Z,79.77
2019-01-06T00:56:11.630Z,79.72
2019-01-06T00:58:37.926Z,79.78
2019-01-06T01:01:04.201Z,79.86
2019-01-06T01:03:30.496Z,79.77
2019-01-06T01:05:56.779Z,80.29
2019-01-06T01:08:23.088Z,80.55
2019-01-06T01:10:49.363Z,80.67
2019-01-06T01:13:15.658Z,80.89
2019-01-06T01:15:41.971Z,80.70
2019-01-06T01:18:08.281Z,80.34
2019-01-06T01:20:34.570Z,80.21
2019-01-06T01:23:00.869Z,80.25
2019-01-06T01:25:27.163Z,80.14
2019-01-06T01:27:53.462Z,80.57
2019-01-06T01:30:19.738Z,80.78
2019-01-06T01:32:46.089Z,80.99
2019-01-06T01:35:12.387Z,81.20
2019-01-06T01:37:38.658Z,81.18
2019-01-06T01:40:04.958Z,81.14
2019-01-06T01:42:31.241Z,81.32
2019-01-06T01:44:57.525Z,81.81
2019-01-06T01:47:23.849Z,82.00
2019-01-06T01:49:50.169Z,89.54
2019-01-06T01:52:16.447Z,84.73
2019-01-06T01:54:42.735Z,80.24
2019-01-06T01:57:09.015Z,79.81
2019-01-06T01:59:35.304Z,79.91
2019-01-06T02:02:01.582Z,80.95
2019-01-06T02:04:27.889Z,81.56
2019-01-06T02:06:54.174Z,81.79
2019-01-06T02:09:20.452Z,81.89
2019-01-06T02:11:46.753Z,82.29
2019-01-06T02:14:13.059Z,82.25
2019-01-06T02:16:39.327Z,82.23
2019-01-06T02:19:05.618Z,82.14
2019-01-06T02:21:31.934Z,82.41
2019-01-06T02:23:58.253Z,82.45
2019-01-06T02:26:24.545Z,82.75
2019-01-06T02:28:50.826Z,83.19
2019-01-06T02:31:17.103Z,83.13
2019-01-06T02:33:43.390Z,83.49
2019-01-06T02:36:09.785Z,83.43
2019-01-06T02:38:35.995Z,83.53
2019-01-06T02:41:02.280Z,83.75
2019-01-06T02:43:28.574Z,83.80
2019-01-06T02:45:54.869Z,84.10
2019-01-06T02:48:21.145Z,84.18
2019-01-06T02:50:47.454Z,84.32
2019-01-06T02:53:13.767Z,84.44
2019-01-06T02:55:40.060Z,84.56
2019-01-06T02:58:06.338Z,85.22
2019-01-06T03:00:32.652Z,85.04
2019-01-06T03:02:58.936Z,85.14
2019-01-06T03:05:25.230Z,85.41
2019-01-06T03:07:51.538Z,85.59
2019-01-06T03:10:17.825Z,85.59
2019-01-06T03:12:44.113Z,85.80
2019-01-06T03:15:10.422Z,85.78
2019-01-06T03:17:36.725Z,85.90
2019-01-06T03:20:03.030Z,85.50
2019-01-06T03:22:29.302Z,85.70
2019-01-06T03:24:55.598Z,85.66
2019-01-06T03:27:21.887Z,85.89
2019-01-06T03:29:48.160Z,85.94
2019-01-06T03:32:14.458Z,86.08
2019-01-06T03:34:40.728Z,86.33
2019-01-06T03:37:07.026Z,86.48
2019-01-06T03:39:33.311Z,86.32
2019-01-06T03:41:59.615Z,86.19
2019-01-06T03:44:25.897Z,86.27
2019-01-06T03:46:52.203Z,86.25
2019-01-06T03:49:18.475Z,86.38
2019-01-06T03:51:44.755Z,86.32
2019-01-06T03:54:11.135Z,86.22
2019-01-06T03:56:37.348Z,86.47
2019-01-06T03:59:03.638Z,86.52
2019-01-06T04:01:29.938Z,86.50
2019-01-06T04:03:56.227Z,86.93
2019-01-06T04:06:22.505Z,86.77
2019-01-06T04:08:48.830Z,86.37
2019-01-06T04:11:15.572Z,86.32
2019-01-06T04:13:41.434Z,86.31
2019-01-06T04:16:07.713Z,86.35
2019-01-06T04:18:34.033Z,86.66
2019-01-06T04:21:00.329Z,86.76
2019-01-06T04:23:26.606Z,86.80
2019-01-06T04:25:52.899Z,86.62
2019-01-06T04:28:19.198Z,86.58
2019-01-06T04:30:45.500Z,86.80
2019-01-06T04:33:11.802Z,87.12
2019-01-06T04:35:38.073Z,87.04
2019-01-06T04:38:04.372Z,87.04
2019-01-06T04:40:30.678Z,86.96
2019-01-06T04:42:56.953Z,86.89
2019-01-06T04:45:23.243Z,87.14
2019-01-06T04:47:49.533Z,86.99
2019-01-06T04:50:15.838Z,87.08
2019-01-06T04:52:42.128Z,87.06
2019-01-06T04:55:08.438Z,87.02
2019-01-06T04:57:34.745Z,86.76
2019-01-06T05:00:01.038Z,86.35
2019-01-06T05:02:27.313Z,86.08
2019-01-06T05:04:53.583Z,86.19
2019-01-06T05:07:19.884Z,86.15
2019-01-06T05:09:46.171Z,86.15
2019-01-06T05:12:12.517Z,86.08
2019-01-06T05:14:38.813Z,86.43
2019-01-06T05:17:05.116Z,86.79
2019-01-06T05:19:31.418Z,87.11
2019-01-06T05:21:57.693Z,87.34
2019-01-06T05:24:23.979Z,87.50
2019-01-06T05:26:50.270Z,87.37
2019-01-06T05:29:16.543Z,87.24
2019-01-06T05:31:42.844Z,87.29
2019-01-06T05:34:09.122Z,87.39
2019-01-06T05:36:35.418Z,87.71
2019-01-06T05:39:01.698Z,87.52
2019-01-06T05:41:28.097Z,87.53
2019-01-06T05:43:54.387Z,87.41
2019-01-06T05:46:20.677Z,87.54
2019-01-06T05:48:46.957Z,87.49
2019-01-06T05:51:13.271Z,87.30
2019-01-06T05:53:39.568Z,86.92
2019-01-06T05:56:05.861Z,86.68
2019-01-06T05:58:32.190Z,86.79
2019-01-06T06:00:58.481Z,86.71
2019-01-06T06:03:24.752Z,86.59
2019-01-06T06:05:51.109Z,86.67
2019-01-06T06:08:17.388Z,86.51
2019-01-06T06:10:43.684Z,86.75
2019-01-06T06:13:10.073Z,86.94
2019-01-06T06:15:36.379Z,87.15
2019-01-06T06:18:05.496Z,87.17
2019-01-06T06:20:28.949Z,87.49
2019-01-06T06:22:55.257Z,87.13
2019-01-06T06:25:21.572Z,87.18
2019-01-06T06:27:47.849Z,87.25
2019-01-06T06:30:14.126Z,87.20
2019-01-06T06:32:40.400Z,87.14
2019-01-06T06:35:06.692Z,86.82
2019-01-06T06:37:32.979Z,86.59
2019-01-06T06:39:59.271Z,86.24
2019-01-06T06:42:25.564Z,85.76
2019-01-06T06:44:51.872Z,85.38
2019-01-06T06:47:18.167Z,85.23
2019-01-06T06:49:44.446Z,85.23
2019-01-06T06:52:10.916Z,85.44
2019-01-06T06:54:37.204Z,85.37
2019-01-06T06:57:03.497Z,85.56
2019-01-06T06:59:29.791Z,85.47
2019-01-06T07:01:56.085Z,85.33
2019-01-06T07:04:22.364Z,84.91
2019-01-06T07:06:48.715Z,84.38
2019-01-06T07:09:14.998Z,83.58
2019-01-06T07:11:41.302Z,83.30
2019-01-06T07:14:07.598Z,82.95
2019-01-06T07:16:34.155Z,82.33
2019-01-06T07:19:00.497Z,82.11
2019-01-06T07:21:26.786Z,81.43
2019-01-06T07:23:53.084Z,81.51
2019-01-06T07:26:19.383Z,81.37
2019-01-06T07:28:45.694Z,81.07
2019-01-06T07:31:11.982Z,80.91
2019-01-06T07:33:38.275Z,80.89
2019-01-06T07:36:04.601Z,80.72
2019-01-06T07:38:30.881Z,80.85
2019-01-06T07:40:57.181Z,80.36
2019-01-06T07:43:23.480Z,80.13
2019-01-06T07:45:49.785Z,80.42
2019-01-06T07:48:16.078Z,80.20
2019-01-06T07:50:42.380Z,80.27
2019-01-06T07:53:08.685Z,80.20
2019-01-06T07:55:34.960Z,80.27
2019-01-06T07:58:01.271Z,79.93
2019-01-06T08:00:27.559Z,79.77
2019-01-06T08:02:53.846Z,79.78
2019-01-06T08:05:20.143Z,80.01
2019-01-06T08:07:46.421Z,79.85
2019-01-06T08:10:12.719Z,79.89
2019-01-06T08:12:38.999Z,80.13
2019-01-06T08:15:05.313Z,79.96
2019-01-06T08:17:31.606Z,79.73
2019-01-06T08:19:57.899Z,79.37
2019-01-06T08:22:24.198Z,79.07
2019-01-06T08:24:50.505Z,79.64
2019-01-06T08:27:16.820Z,79.94
2019-01-06T08:29:43.117Z,80.34
2019-01-06T08:32:09.413Z,80.40
2019-01-06T08:34:35.714Z,80.31
2019-01-06T08:37:02.007Z,80.73
2019-01-06T08:39:28.322Z,80.79
2019-01-06T08:41:54.597Z,80.89
2019-01-06T08:44:20.897Z,81.01
2019-01-06T08:46:47.179Z,81.06
2019-01-06T08:49:13.609Z,80.79
2019-01-06T08:51:39.924Z,81.13
2019-01-06T08:54:06.121Z,80.50
2019-01-06T08:56:32.570Z,80.23
2019-01-06T08:58:58.708Z,80.40
2019-01-06T09:01:25.011Z,81.07
2019-01-06T09:03:51.324Z,80.10
2019-01-06T09:06:17.639Z,79.83
2019-01-06T09:08:44.712Z,79.98
2019-01-06T09:11:10.244Z,80.16
2019-01-06T09:13:36.523Z,79.55
2019-01-06T09:16:02.810Z,78.50
2019-01-06T09:18:29.084Z,78.71
2019-01-06T09:20:55.377Z,78.20
2019-01-06T09:23:21.702Z,77.90
2019-01-06T09:25:47.999Z,77.99
2019-01-06T09:28:14.263Z,77.94
2019-01-06T09:30:40.592Z,77.68
2019-01-06T09:33:06.906Z,77.80
2019-01-06T09:35:33.177Z,77.66
2019-01-06T09:37:59.472Z,77.93
2019-01-06T09:40:27.053Z,78.24
2019-01-06T09:42:52.097Z,78.21
2019-01-06T09:45:18.377Z,78.34
2019-01-06T09:47:44.671Z,78.34
2019-01-06T09:50:10.971Z,78.31
2019-01-06T09:52:37.282Z,78.68
2019-01-06T09:55:03.642Z,78.89
2019-01-06T09:57:29.930Z,78.80
2019-01-06T09:59:56.209Z,79.29
2019-01-06T10:02:22.509Z,79.23
2019-01-06T10:04:48.785Z,79.52
2019-01-06T10:07:15.064Z,79.63
2019-01-06T10:09:41.348Z,79.29
2019-01-06T10:12:07.689Z,79.57
2019-01-06T10:14:33.966Z,79.45
2019-01-06T10:17:00.265Z,79.05
2019-01-06T10:19:26.565Z,79.15
2019-01-06T10:21:52.875Z,79.04
2019-01-06T10:24:19.160Z,78.72
2019-01-06T10:26:46.787Z,78.59
2019-01-06T10:29:13.126Z,78.51
2019-01-06T10:31:39.415Z,78.25
2019-01-06T10:34:05.724Z,77.57
2019-01-06T10:36:32.023Z,77.59
2019-01-06T10:38:58.306Z,77.10
2019-01-06T10:41:24.586Z,76.97
2019-01-06T10:43:50.884Z,76.67
2019-01-06T10:46:17.258Z,76.05
2019-01-06T10:48:43.707Z,76.12
2019-01-06T10:51:14.381Z,76.06
2019-01-06T10:53:40.783Z,75.92
2019-01-06T10:56:07.069Z,75.51
2019-01-06T10:58:33.373Z,75.33
2019-01-06T11:00:59.642Z,75.44
2019-01-06T11:03:25.958Z,75.47
2019-01-06T11:05:52.233Z,75.84
2019-01-06T11:08:18.509Z,75.63
2019-01-06T11:10:44.808Z,75.54
2019-01-06T11:13:13.922Z,75.44
2019-01-06T11:15:40.257Z,75.13
2019-01-06T11:18:06.529Z,75.12
2019-01-06T11:20:32.851Z,74.23
2019-01-06T11:22:59.143Z,74.57
2019-01-06T11:25:25.429Z,74.55
2019-01-06T11:27:51.699Z,74.50
2019-01-06T11:30:17.997Z,74.26
2019-01-06T11:32:44.310Z,73.70
2019-01-06T11:35:10.618Z,74.06
2019-01-06T11:37:36.930Z,73.86
2019-01-06T11:40:03.225Z,73.91
2019-01-06T11:42:29.524Z,73.75
2019-01-06T11:44:55.841Z,73.63
2019-01-06T11:47:22.123Z,73.68
2019-01-06T11:49:48.441Z,73.62
2019-01-06T11:52:14.733Z,73.50
2019-01-06T11:54:41.029Z,73.17
2019-01-06T11:57:07.305Z,72.95
2019-01-06T11:59:33.602Z,72.82
2019-01-06T12:01:59.882Z,72.54
2019-01-06T12:04:26.169Z,72.42
2019-01-06T12:06:52.684Z,71.93
2019-01-06T12:09:18.995Z,72.27
2019-01-06T12:11:45.262Z,72.30
2019-01-06T12:14:11.557Z,72.70
2019-01-06T12:16:37.847Z,72.39
2019-01-06T12:19:04.122Z,72.06
2019-01-06T12:21:30.459Z,71.86
2019-01-06T12:23:56.982Z,72.61
2019-01-06T12:26:23.273Z,73.12
2019-01-06T12:28:49.581Z,74.04
2019-01-06T12:31:15.864Z,75.48
2019-01-06T12:33:42.154Z,76.83
2019-01-06T12:36:08.452Z,78.17
2019-01-06T12:38:34.743Z,78.84
2019-01-06T12:41:01.021Z,79.74
2019-01-06T12:43:27.318Z,80.51
2019-01-06T12:45:53.599Z,81.01
2019-01-06T12:48:19.906Z,81.78
2019-01-06T12:50:46.243Z,81.47
2019-01-06T12:53:12.489Z,80.79
2019-01-06T12:55:38.784Z,80.26
2019-01-06T12:58:05.094Z,79.66
2019-01-06T13:00:31.394Z,78.20
2019-01-06T13:02:57.689Z,76.70
2019-01-06T13:05:23.976Z,75.52
2019-01-06T13:07:50.284Z,75.05
2019-01-06T13:10:19.743Z,74.07
2019-01-06T13:12:46.038Z,73.50
2019-01-06T13:15:12.376Z,73.44
2019-01-06T13:17:38.679Z,73.18
2019-01-06T13:20:05.046Z,71.92
2019-01-06T13:22:31.449Z,72.53
2019-01-06T13:24:57.747Z,72.21
2019-01-06T13:27:24.018Z,71.80
2019-01-06T13:29:50.315Z,72.86
2019-01-06T13:32:16.632Z,70.55
2019-01-06T13:34:42.908Z,68.68
2019-01-06T13:37:09.210Z,69.17
2019-01-06T13:39:35.508Z,69.63
2019-01-06T13:42:01.914Z,68.92
2019-01-06T13:44:28.230Z,68.83
2019-01-06T13:46:56.455Z,68.79
2019-01-06T13:49:20.793Z,68.96
2019-01-06T13:51:47.074Z,69.34
2019-01-06T13:54:13.394Z,69.40
2019-01-06T13:56:39.636Z,69.47
2019-01-06T13:59:05.960Z,69.69
2019-01-06T14:01:32.296Z,70.01
2019-01-06T14:03:58.581Z,70.39
2019-01-06T14:06:24.874Z,70.34
2019-01-06T14:08:51.169Z,70.76
2019-01-06T14:11:17.462Z,70.55
2019-01-06T14:13:43.785Z,70.71
2019-01-06T14:16:10.056Z,71.08
2019-01-06T14:18:36.402Z,70.90
2019-01-06T14:21:02.696Z,70.67
2019-01-06T14:23:28.974Z,70.69
2019-01-06T14:25:55.261Z,70.88
2019-01-06T14:28:21.543Z,71.30
2019-01-06T14:30:47.876Z,70.81
2019-01-06T14:33:14.175Z,70.71
2019-01-06T14:35:40.456Z,71.04
2019-01-06T14:38:06.753Z,69.08
2019-01-06T14:40:33.057Z,69.54
2019-01-06T14:42:59.348Z,68.93
2019-01-06T14:45:25.666Z,68.95
2019-01-06T14:47:51.933Z,69.15
2019-01-06T14:50:18.243Z,68.81
2019-01-06T14:52:44.517Z,69.23
2019-01-06T14:55:10.843Z,68.94
2019-01-06T14:57:37.143Z,68.04
2019-01-06T15:00:07.417Z,68.33
2019-01-06T15:02:33.705Z,69.11
2019-01-06T15:04:59.998Z,69.87
2019-01-06T15:07:26.287Z,69.93
2019-01-06T15:09:52.563Z,70.48
2019-01-06T15:12:19.732Z,71.06
2019-01-06T15:14:46.017Z,71.15
2019-01-06T15:17:12.334Z,70.90
2019-01-06T15:19:38.632Z,71.02
2019-01-06T15:22:04.924Z,71.34
2019-01-06T15:24:31.208Z,71.41
2019-01-06T15:26:57.509Z,71.84
2019-01-06T15:29:23.799Z,72.17
2019-01-06T15:31:50.076Z,72.13
2019-01-06T15:34:16.382Z,72.56
2019-01-06T15:36:42.681Z,72.78
2019-01-06T15:39:08.999Z,73.10
2019-01-06T15:41:35.310Z,73.41
2019-01-06T15:44:01.597Z,73.38
2019-01-06T15:46:27.903Z,73.64
2019-01-06T15:48:54.176Z,73.81
2019-01-06T15:51:20.487Z,73.60
2019-01-06T15:53:46.783Z,73.84
2019-01-06T15:56:13.323Z,73.98
2019-01-06T15:58:39.640Z,74.38
2019-01-06T16:01:05.935Z,74.24
2019-01-06T16:03:32.233Z,74.34
2019-01-06T16:05:58.540Z,74.39
2019-01-06T16:08:24.851Z,74.38
2019-01-06T16:10:51.131Z,74.47
2019-01-06T16:13:17.434Z,74.60
2019-01-06T16:15:43.757Z,74.61
2019-01-06T16:18:10.091Z,75.10
2019-01-06T16:20:36.370Z,74.95
2019-01-06T16:23:02.681Z,74.92
2019-01-06T16:25:28.962Z,75.03
2019-01-06T16:27:56.175Z,75.08
2019-01-06T16:30:21.634Z,75.10
2019-01-06T16:32:47.843Z,75.25
2019-01-06T16:35:14.131Z,75.39
2019-01-06T16:37:40.429Z,75.51
2019-01-06T16:40:06.683Z,75.73
2019-01-06T16:42:32.974Z,75.74
2019-01-06T16:44:59.252Z,75.96
2019-01-06T16:47:25.554Z,75.87
2019-01-06T16:49:51.847Z,76.20
2019-01-06T16:52:18.130Z,76.07
2019-01-06T16:54:44.403Z,76.28
2019-01-06T16:57:10.757Z,76.28
2019-01-06T16:59:37.024Z,76.50
2019-01-06T17:02:03.318Z,76.70
2019-01-06T17:04:29.627Z,76.74
2019-01-06T17:06:55.892Z,77.04
2019-01-06T17:09:22.205Z,77.36
2019-01-06T17:11:48.498Z,77.54
2019-01-06T17:14:14.793Z,77.20
2019-01-06T17:16:43.351Z,77.26
2019-01-06T17:19:09.668Z,77.27
2019-01-06T17:21:38.511Z,77.26
2019-01-06T17:24:04.830Z,77.23
2019-01-06T17:26:31.203Z,77.00
2019-01-06T17:28:57.501Z,76.91
2019-01-06T17:31:23.787Z,76.64
2019-01-06T17:33:50.229Z,76.60
2019-01-06T17:36:16.530Z,76.51
2019-01-06T17:38:42.845Z,76.19
2019-01-06T17:41:09.126Z,76.27
2019-01-06T17:43:35.409Z,75.75
2019-01-06T17:46:01.698Z,75.69
2019-01-06T17:48:28.059Z,76.00
2019-01-06T17:50:54.359Z,75.73
2019-01-06T17:53:20.659Z,75.45
2019-01-06T17:55:46.949Z,75.49
2019-01-06T17:58:13.315Z,75.35
2019-01-06T18:00:39.558Z,75.89
2019-01-06T18:03:05.857Z,75.27
2019-01-06T18:05:32.167Z,75.48
2019-01-06T18:07:58.449Z,75.75
2019-01-06T18:10:24.752Z,75.54
2019-01-06T18:12:51.067Z,75.40
2019-01-06T18:15:17.389Z,75.29
2019-01-06T18:17:43.685Z,75.52
2019-01-06T18:20:09.993Z,75.37
2019-01-06T18:22:36.656Z,75.39
2019-01-06T18:25:02.624Z,75.47
2019-01-06T18:27:28.950Z,75.34
2019-01-06T18:29:55.223Z,75.32
2019-01-06T18:32:21.502Z,75.48
2019-01-06T18:34:47.799Z,75.75
2019-01-06T18:37:14.140Z,75.49
2019-01-06T18:39:40.422Z,75.82
2019-01-06T18:42:06.735Z,75.90
2019-01-06T18:44:33.040Z,75.78
2019-01-06T18:46:59.331Z,75.88
2019-01-06T18:49:26.736Z,76.15
2019-01-06T18:51:53.044Z,75.70
2019-01-06T18:54:19.339Z,75.99
2019-01-06T18:56:45.674Z,75.90
2019-01-06T18:59:12.239Z,76.00
2019-01-06T19:01:38.546Z,76.26
2019-01-06T19:04:04.939Z,76.19
2019-01-06T19:06:31.118Z,76.17
2019-01-06T19:08:57.412Z,76.62
2019-01-06T19:11:23.743Z,76.71
2019-01-06T19:13:50.039Z,76.82
2019-01-06T19:16:16.349Z,76.84
2019-01-06T19:18:42.633Z,76.76
2019-01-06T19:21:08.947Z,77.00
2019-01-06T19:23:35.250Z,77.11
2019-01-06T19:26:01.523Z,77.25
2019-01-06T19:28:27.844Z,77.38
2019-01-06T19:30:54.162Z,77.41
2019-01-06T19:33:20.458Z,77.56
2019-01-06T19:35:46.793Z,77.64
2019-01-06T19:38:13.061Z,77.84
2019-01-06T19:40:39.343Z,77.86
2019-01-06T19:43:05.629Z,78.03
2019-01-06T19:45:31.969Z,78.12
2019-01-06T19:47:58.263Z,78.57
2019-01-06T19:50:24.544Z,78.39
2019-01-06T19:52:50.830Z,78.59
2019-01-06T19:55:17.136Z,78.71
2019-01-06T19:57:47.218Z,78.82
2019-01-06T20:00:09.734Z,78.69
2019-01-06T20:02:36.353Z,79.10
2019-01-06T20:05:02.669Z,79.13
2019-01-06T20:07:28.978Z,78.97
2019-01-06T20:09:55.453Z,79.04
2019-01-06T20:12:21.696Z,79.03
2019-01-06T20:14:48.037Z,79.18
2019-01-06T20:17:14.331Z,79.04
2019-01-06T20:19:40.628Z,78.75
2019-01-06T20:22:06.922Z,78.84
2019-01-06T20:24:33.213Z,78.71
2019-01-06T20:26:59.517Z,78.57
2019-01-06T20:29:25.818Z,78.67
2019-01-06T20:31:52.075Z,78.23
2019-01-06T20:34:18.437Z,78.44
2019-01-06T20:36:44.830Z,78.49
2019-01-06T20:39:11.143Z,78.49
2019-01-06T20:41:37.451Z,78.36
2019-01-06T20:44:03.761Z,78.11
2019-01-06T20:46:30.043Z,78.16
2019-01-06T20:48:56.390Z,78.08
2019-01-06T20:51:22.670Z,77.60
2019-01-06T20:53:48.972Z,77.91
2019-01-06T20:56:15.283Z,77.82
2019-01-06T20:58:41.570Z,77.86
2019-01-06T21:01:07.918Z,77.69
2019-01-06T21:03:34.209Z,77.36
2019-01-06T21:06:00.528Z,77.37
2019-01-06T21:08:26.821Z,77.37
2019-01-06T21:10:53.102Z,76.96
2019-01-06T21:13:19.379Z,77.11
2019-01-06T21:15:45.663Z,77.15
2019-01-06T21:18:13.113Z,76.98
2019-01-06T21:20:39.416Z,76.90
2019-01-06T21:23:05.711Z,76.80
2019-01-06T21:25:32.161Z,76.76
2019-01-06T21:27:58.452Z,76.83
2019-01-06T21:30:24.798Z,76.92
2019-01-06T21:32:51.129Z,76.86
2019-01-06T21:35:17.407Z,76.81
2019-01-06T21:37:43.713Z,76.76
2019-01-06T21:40:10.011Z,76.31
2019-01-06T21:42:36.386Z,76.27
2019-01-06T21:45:02.674Z,76.23
2019-01-06T21:47:28.987Z,76.11
2019-01-06T21:49:55.263Z,76.07
2019-01-06T21:52:21.563Z,76.16
2019-01-06T21:54:47.868Z,76.07
2019-01-06T21:57:14.163Z,75.83
2019-01-06T21:59:40.459Z,75.95
2019-01-06T22:02:06.760Z,75.92
2019-01-06T22:04:33.057Z,75.89
2019-01-06T22:06:59.369Z,75.80
2019-01-06T22:09:25.648Z,75.97
2019-01-06T22:11:51.964Z,75.83
2019-01-06T22:14:18.252Z,75.78
2019-01-06T22:16:44.566Z,75.71
2019-01-06T22:19:10.846Z,75.90
2019-01-06T22:21:37.155Z,75.99
2019-01-06T22:24:03.452Z,75.67
2019-01-06T22:26:29.765Z,75.68
2019-01-06T22:28:56.063Z,75.54
2019-01-06T22:31:25.447Z,75.88
2019-01-06T22:33:48.646Z,75.67
2019-01-06T22:36:14.951Z,75.64
2019-01-06T22:38:41.237Z,75.57
2019-01-06T22:41:07.544Z,77.24
2019-01-06T22:43:33.844Z,75.64
2019-01-06T22:46:00.119Z,75.60
2019-01-06T22:48:26.404Z,75.58
2019-01-06T22:50:52.692Z,75.45
2019-01-06T22:53:18.979Z,75.42
2019-01-06T22:55:45.263Z,75.69
2019-01-06T22:58:11.539Z,75.58
2019-01-06T23:00:37.835Z,75.80
2019-01-06T23:03:04.121Z,75.89
2019-01-06T23:05:30.456Z,76.15
2019-01-06T23:07:56.872Z,76.30
2019-01-06T23:10:23.150Z,76.81
2019-01-06T23:12:49.469Z,76.85
2019-01-06T23:15:15.748Z,76.95
2019-01-06T23:17:42.031Z,76.97
2019-01-06T23:20:08.342Z,77.14
2019-01-06T23:22:34.652Z,77.17
2019-01-06T23:25:00.928Z,77.36
2019-01-06T23:27:27.213Z,77.32
2019-01-06T23:29:53.506Z,77.50
2019-01-06T23:32:19.782Z,77.50
2019-01-06T23:34:46.104Z,77.48
2019-01-06T23:37:12.379Z,77.67
2019-01-06T23:39:38.690Z,77.61
2019-01-06T23:42:04.978Z,77.44
2019-01-06T23:44:31.264Z,77.58
2019-01-06T23:46:57.607Z,77.43
2019-01-06T23:49:23.908Z,77.57
2019-01-06T23:51:50.196Z,77.85
2019-01-06T23:54:16.486Z,78.08
2019-01-06T23:56:42.772Z,78.20
2019-01-06T23:59:09.077Z,78.37
